TFM - Tactical Decision Aid
ID: Runway Winds: CIG/VIS Threshold:

KDEN - Denver Intl, CO, US

Updated at: 0153 UTC 12 May 2021
Latest TAF at: 0113 UTC 12 May 2021

TAF Board

Time0053Z 12/02Z 12/03Z 12/04Z 12/05Z 12/06Z 12/07Z 12/08Z 12/09Z 12/10Z 12/11Z 12/12Z 12/13Z 12/14Z>>
Type OBS PRVL
  [TEMP]  
PRVL PRVL PRVL PRVL PRVL PRVL PRVL PRVL
  [TEMP]  
PRVL
  [TEMP]  
PRVL
  [TEMP]  
PRVL
  [TEMP]  
PRVL
VIS 10 >6
  [4]  
>6 >6 >6 >6 >6 >6 >6 >6
  [1]  
>6
  [1]  
>6
  [1]  
>6
  [1]  
>6
CIG 15 15
  [8]  
40 40 40 -- -- -- -- --
  [4]  
--
  [4]  
--
  [4]  
--
  [4]  
--
Cover OVC OVC
  [BKN]  
BKN BKN BKN SCT SCT SCT SCT SCT
  [BKN]  
SCT
  [BKN]  
SCT
  [BKN]  
SCT
  [BKN]  
FEW
FltCat MVFR MVFR
  [IFR]  
VFR VFR VFR VFR VFR VFR VFR VFR
  [LIFR]  
VFR
  [LIFR]  
VFR
  [LIFR]  
VFR
  [LIFR]  
VFR
WX -- --
  [-RA]  
-- -- -- VCFG VCFG VCFG VCFG VCFG
  [BR]  
VCFG
  [BR]  
VCFG
  [BR]  
VCFG
  [BR]  
--
WDir 330 320
[320]
VRB VRB VRB 200 200 200 200 200
[200]
200
[200]
200
[200]
200
[200]
VRB
WSpd 7 7
  [7]  
6 6 6 6 6 6 6 6
  [6]  
6
  [6]  
6
  [6]  
6
  [6]  
5
WGst -- --
  [--]  
-- -- -- -- -- -- -- --
  [--]  
--
  [--]  
--
  [--]  
--
  [--]  
--

TDA Impact Legend

  None Marginal Slight Moderate High
Visibility (sm) >5 3≤X≤5 1≤X<3 0.5≤X<1 <0.5
Ceiling (100 ft) >30 10≤X≤30 4≤X<10 2≤X<4 <2
Wind Speed (kt) <15 15≤X<25 25≤X<30 ≥30
Wind Gust (kt) <15 15≤X<25 25≤X<35 ≥35
Weather No Wx Reported VCTS -TS,-FZRA TS,FZRA +TS,+FZRA
TAF
KDEN 120113Z 1201/1306 32007KT P6SM BKN015 OVC020
  TEMPO 1201/1203 4SM -RA BKN008
  FM120300 VRB06KT P6SM SCT015 BKN040
  FM120600 20006KT P6SM VCFG FEW010 SCT020
  TEMPO 1210/1214 1SM BR BKN004
  FM121400 VRB05KT P6SM FEW020
  FM121900 03007KT P6SM SCT070
  FM130400 21009KT P6SM SKC


METAR
KDEN 120053Z 33007KT 10SM BKN015 OVC033 06/03 A3025 RMK AO2 SLP239 T00560028
KDEN 120047Z 34005KT 10SM BKN015 OVC033 06/03 A3025 RMK AO2
KDEN 120028Z 00000KT 10SM FEW020 BKN034 BKN045 06/03 A3025 RMK AO2 T00610028
KDEN 112353Z 16003KT 10SM BKN015 BKN220 06/02 A3024 RMK AO2 SLP236 60014 T00560022 10061 20039 53006
KDEN 112313Z 00000KT 10SM SCT010 BKN016 BKN039 BKN220 06/02 A3023 RMK AO2 T00560022
KDEN 112253Z 20004KT 10SM FEW008 BKN010 OVC044 05/03 A3023 RMK AO2 RAE01B36E53 SLP234 P0000 T00500033
KDEN 112244Z 20004KT 9SM -RA FEW008 BKN012 OVC044 05/03 A3023 RMK AO2 RAE01B36 P0000 T00500033

Radar Display
Forecast Discussion